createdAt,value
2023-05-15T00:01:46.344Z,12.26
2023-05-15T00:04:15.136Z,12.36
2023-05-15T00:06:44.715Z,12.37
2023-05-15T00:09:13.553Z,12.37
2023-05-15T00:11:42.264Z,12.40
2023-05-15T00:14:11.229Z,12.38
2023-05-15T00:16:41.625Z,12.40
2023-05-15T00:19:11.032Z,12.42
2023-05-15T00:21:39.926Z,12.48
2023-05-15T00:24:08.826Z,12.53
2023-05-15T00:26:37.574Z,12.57
2023-05-15T00:29:06.410Z,12.57
2023-05-15T00:31:35.208Z,12.40
2023-05-15T00:34:05.539Z,12.58
2023-05-15T00:36:34.436Z,12.60
2023-05-15T00:39:03.185Z,12.65
2023-05-15T00:41:33.515Z,12.59
2023-05-15T00:44:03.896Z,12.62
2023-05-15T00:46:33.903Z,12.64
2023-05-15T00:49:06.862Z,12.65
2023-05-15T00:51:36.750Z,12.60
2023-05-15T00:54:06.340Z,12.64
2023-05-15T00:56:35.962Z,12.66
2023-05-15T00:59:06.290Z,12.63
2023-05-15T01:01:36.338Z,12.68
2023-05-15T01:04:07.315Z,12.69
2023-05-15T01:06:36.128Z,12.70
2023-05-15T01:09:05.580Z,12.67
2023-05-15T01:11:39.192Z,12.60
2023-05-15T01:14:09.877Z,12.65
2023-05-15T01:16:39.366Z,12.68
2023-05-15T01:19:09.681Z,12.66
2023-05-15T01:22:07.050Z,12.66
2023-05-15T01:24:59.736Z,12.64
2023-05-15T01:27:36.106Z,12.68
2023-05-15T01:30:14.210Z,12.66
2023-05-15T01:32:49.274Z,12.67
2023-05-15T01:35:23.863Z,12.70
2023-05-15T01:38:01.300Z,12.70
2023-05-15T01:40:31.378Z,12.69
2023-05-15T01:43:09.530Z,12.69
2023-05-15T01:45:38.912Z,12.71
2023-05-15T01:48:09.905Z,12.73
2023-05-15T01:50:41.538Z,12.75
2023-05-15T01:53:11.866Z,12.75
2023-05-15T01:55:41.534Z,12.78
2023-05-15T01:58:11.466Z,12.77
2023-05-15T02:00:41.065Z,12.74
2023-05-15T02:03:10.905Z,12.72
2023-05-15T02:05:43.500Z,12.70
2023-05-15T02:08:17.777Z,12.74
2023-05-15T02:10:47.360Z,12.72
2023-05-15T02:13:18.373Z,12.74
2023-05-15T02:15:47.359Z,12.53
2023-05-15T02:18:16.118Z,12.74
2023-05-15T02:20:45.044Z,12.74
2023-05-15T02:23:13.694Z,12.80
2023-05-15T02:26:11.684Z,12.79
2023-05-15T02:28:50.018Z,12.80
2023-05-15T02:31:29.697Z,12.82
2023-05-15T02:34:10.683Z,12.82
2023-05-15T02:36:46.100Z,12.83
2023-05-15T02:39:17.920Z,12.82
2023-05-15T02:41:47.842Z,12.82
2023-05-15T02:44:21.281Z,12.84
2023-05-15T02:46:51.090Z,12.84
2023-05-15T02:49:26.694Z,12.83
2023-05-15T02:51:55.465Z,12.82
2023-05-15T02:54:24.339Z,12.83
2023-05-15T02:56:53.115Z,12.82
2023-05-15T02:59:23.628Z,12.83
2023-05-15T03:01:52.439Z,12.84
2023-05-15T03:04:22.386Z,12.86
2023-05-15T03:06:56.920Z,12.84
2023-05-15T03:09:25.830Z,12.83
2023-05-15T03:11:54.427Z,12.85
2023-05-15T03:14:24.759Z,12.84
2023-05-15T03:16:53.559Z,12.85
2023-05-15T03:19:22.459Z,12.82
2023-05-15T03:21:51.259Z,12.84
2023-05-15T03:24:20.063Z,12.79
2023-05-15T03:26:48.781Z,12.82
2023-05-15T03:29:17.712Z,12.84
2023-05-15T03:31:47.942Z,12.84
2023-05-15T03:34:18.255Z,12.84
2023-05-15T03:36:47.041Z,12.85
2023-05-15T03:39:15.826Z,12.84
2023-05-15T03:41:44.660Z,12.84
2023-05-15T03:44:13.456Z,12.85
2023-05-15T03:46:42.306Z,12.77
2023-05-15T03:49:14.848Z,12.86
2023-05-15T03:51:43.808Z,12.85
2023-05-15T03:54:12.714Z,12.85
2023-05-15T03:56:41.680Z,12.87
2023-05-15T03:59:10.656Z,12.89
2023-05-15T04:01:51.004Z,12.75
2023-05-15T04:04:30.094Z,12.89
2023-05-15T04:06:58.906Z,12.89
2023-05-15T04:09:27.744Z,12.91
2023-05-15T04:11:56.692Z,12.94
2023-05-15T04:14:25.478Z,12.95
2023-05-15T04:16:54.624Z,12.91
2023-05-15T04:19:23.541Z,12.94
2023-05-15T04:21:53.873Z,12.92
2023-05-15T04:24:22.642Z,12.89
2023-05-15T04:26:51.465Z,12.91
2023-05-15T04:29:20.348Z,12.91
2023-05-15T04:31:49.087Z,12.91
2023-05-15T04:34:17.872Z,12.91
2023-05-15T04:36:46.769Z,12.89
2023-05-15T04:39:16.951Z,12.89
2023-05-15T04:41:45.890Z,12.93
2023-05-15T04:44:14.734Z,12.91
2023-05-15T04:46:43.713Z,12.92
2023-05-15T04:49:12.483Z,12.95
2023-05-15T04:51:42.331Z,12.97
2023-05-15T04:54:10.760Z,13.00
2023-05-15T04:56:41.258Z,12.98
2023-05-15T04:59:11.143Z,12.85
2023-05-15T05:01:40.015Z,13.01
2023-05-15T05:04:09.734Z,13.00
2023-05-15T05:06:38.639Z,13.05
2023-05-15T05:09:07.435Z,13.06
2023-05-15T05:11:36.183Z,13.07
2023-05-15T05:14:06.880Z,13.10
2023-05-15T05:16:36.338Z,13.13
2023-05-15T05:19:05.190Z,13.17
2023-05-15T05:21:34.264Z,13.12
2023-05-15T05:24:03.065Z,13.17
2023-05-15T05:26:31.894Z,13.18
2023-05-15T05:29:00.665Z,13.20
2023-05-15T05:31:31.108Z,13.18
2023-05-15T05:33:59.954Z,13.23
2023-05-15T05:36:28.725Z,13.20
2023-05-15T05:38:57.991Z,13.22
2023-05-15T05:41:26.885Z,13.24
2023-05-15T05:43:55.737Z,13.21
2023-05-15T05:46:24.504Z,13.20
2023-05-15T05:48:54.742Z,13.21
2023-05-15T05:51:23.517Z,13.04
2023-05-15T05:53:52.938Z,13.20
2023-05-15T05:56:21.899Z,13.21
2023-05-15T05:58:50.888Z,13.21
2023-05-15T06:01:19.655Z,13.20
2023-05-15T06:03:48.629Z,13.19
2023-05-15T06:06:18.875Z,13.18
2023-05-15T06:08:47.613Z,13.18
2023-05-15T06:11:16.291Z,13.17
2023-05-15T06:13:45.029Z,13.21
2023-05-15T06:16:13.772Z,13.23
2023-05-15T06:18:42.599Z,13.26
2023-05-15T06:21:11.284Z,13.26
2023-05-15T06:23:41.444Z,13.28
2023-05-15T06:26:10.108Z,13.29
2023-05-15T06:28:38.794Z,13.31
2023-05-15T06:31:07.505Z,13.32
2023-05-15T06:33:36.233Z,13.33
2023-05-15T06:36:05.335Z,13.34
2023-05-15T06:38:34.048Z,13.36
2023-05-15T06:41:04.375Z,13.38
2023-05-15T06:43:33.179Z,13.43
2023-05-15T06:46:01.896Z,13.47
2023-05-15T06:48:30.672Z,13.48
2023-05-15T06:50:59.738Z,13.42
2023-05-15T06:53:28.529Z,13.38
2023-05-15T06:55:57.289Z,13.39
2023-05-15T06:58:27.823Z,13.39
2023-05-15T07:00:56.979Z,13.38
2023-05-15T07:03:29.219Z,13.34
2023-05-15T07:05:58.169Z,13.42
2023-05-15T07:08:27.052Z,13.42
2023-05-15T07:10:55.688Z,13.38
2023-05-15T07:13:24.643Z,13.38
2023-05-15T07:15:54.887Z,13.41
2023-05-15T07:18:23.738Z,13.44
2023-05-15T07:20:52.464Z,13.49
2023-05-15T07:23:21.213Z,13.56
2023-05-15T07:25:50.172Z,13.57
2023-05-15T07:28:19.173Z,13.57
2023-05-15T07:30:47.967Z,13.62
2023-05-15T07:33:18.238Z,13.63
2023-05-15T07:35:47.051Z,13.64
2023-05-15T07:38:16.345Z,13.66
2023-05-15T07:40:45.283Z,13.77
2023-05-15T07:43:14.107Z,13.83
2023-05-15T07:45:43.032Z,13.94
2023-05-15T07:48:15.556Z,14.01
2023-05-15T07:50:47.345Z,14.07
2023-05-15T07:53:16.954Z,14.03
2023-05-15T07:55:46.026Z,13.97
2023-05-15T07:58:14.771Z,13.91
2023-05-15T08:00:43.689Z,13.86
2023-05-15T08:03:12.689Z,13.74
2023-05-15T08:05:41.598Z,13.75
2023-05-15T08:08:11.896Z,13.81
2023-05-15T08:10:40.911Z,13.86
2023-05-15T08:13:09.557Z,13.93
2023-05-15T08:15:38.431Z,14.04
2023-05-15T08:18:10.462Z,14.24
2023-05-15T08:20:39.596Z,14.33
2023-05-15T08:23:08.822Z,14.43
2023-05-15T08:25:38.935Z,14.60
2023-05-15T08:28:07.699Z,14.62
2023-05-15T08:30:36.403Z,14.63
2023-05-15T08:33:05.552Z,14.62
2023-05-15T08:35:34.485Z,14.44
2023-05-15T08:38:04.172Z,14.37
2023-05-15T08:40:39.128Z,14.26
2023-05-15T08:43:15.445Z,14.29
2023-05-15T08:45:44.613Z,14.24
2023-05-15T08:48:17.806Z,14.20
2023-05-15T08:50:48.207Z,14.17
2023-05-15T08:53:17.454Z,14.14
2023-05-15T08:55:46.207Z,14.16
2023-05-15T08:58:17.650Z,14.16
2023-05-15T09:00:47.649Z,14.16
2023-05-15T09:03:18.914Z,14.15
2023-05-15T09:05:49.449Z,14.16
2023-05-15T09:08:19.730Z,14.26
2023-05-15T09:10:50.044Z,14.36
2023-05-15T09:13:20.647Z,14.46
2023-05-15T09:15:49.413Z,14.55
2023-05-15T09:18:18.328Z,14.64
2023-05-15T09:20:47.467Z,14.79
2023-05-15T09:23:27.386Z,14.94
2023-05-15T09:25:57.225Z,15.04
2023-05-15T09:28:32.193Z,15.08
2023-05-15T09:31:03.944Z,15.02
2023-05-15T09:33:34.984Z,14.93
2023-05-15T09:36:05.182Z,14.96
2023-05-15T09:38:34.642Z,14.98
2023-05-15T09:41:04.978Z,14.99
2023-05-15T09:43:39.192Z,15.01
2023-05-15T09:46:12.413Z,15.13
2023-05-15T09:48:41.409Z,15.21
2023-05-15T09:51:17.209Z,15.27
2023-05-15T09:53:51.098Z,15.22
2023-05-15T09:56:20.116Z,15.22
2023-05-15T09:58:56.841Z,15.19
2023-05-15T10:01:26.887Z,15.23
2023-05-15T10:04:00.723Z,15.30
2023-05-15T10:06:36.371Z,15.45
2023-05-15T10:09:06.114Z,15.67
2023-05-15T10:11:35.651Z,15.87
2023-05-15T10:14:06.676Z,16.30
2023-05-15T10:16:36.705Z,16.50
2023-05-15T10:19:06.919Z,16.71
2023-05-15T10:21:37.495Z,16.95
2023-05-15T10:24:07.738Z,17.15
2023-05-15T10:26:39.395Z,17.00
2023-05-15T10:29:12.376Z,16.84
2023-05-15T10:31:42.056Z,16.64
2023-05-15T10:34:11.024Z,16.48
2023-05-15T10:36:40.171Z,16.41
2023-05-15T10:39:09.586Z,16.40
2023-05-15T10:41:41.692Z,16.50
2023-05-15T10:44:17.403Z,16.62
2023-05-15T10:46:46.382Z,16.86
2023-05-15T10:49:15.122Z,17.17
2023-05-15T10:51:44.229Z,17.23
2023-05-15T10:54:12.997Z,17.16
2023-05-15T10:56:43.749Z,17.07
2023-05-15T10:59:13.875Z,16.93
2023-05-15T11:01:43.254Z,17.00
2023-05-15T11:04:15.347Z,17.30
2023-05-15T11:06:46.248Z,17.54
2023-05-15T11:09:36.805Z,17.59
2023-05-15T11:12:07.110Z,17.50
2023-05-15T11:14:40.111Z,17.31
2023-05-15T11:17:10.620Z,17.23
2023-05-15T11:19:56.008Z,17.27
2023-05-15T11:22:29.103Z,17.25
2023-05-15T11:25:01.798Z,17.22
2023-05-15T11:27:33.015Z,17.11
2023-05-15T11:30:11.744Z,16.85
2023-05-15T11:32:46.089Z,16.73
2023-05-15T11:35:21.885Z,16.66
2023-05-15T11:37:54.305Z,16.64
2023-05-15T11:40:26.645Z,16.61
2023-05-15T11:43:08.720Z,16.65
2023-05-15T11:45:41.819Z,16.69
2023-05-15T11:48:16.518Z,16.84
2023-05-15T11:50:46.739Z,17.10
2023-05-15T11:53:16.232Z,17.30
2023-05-15T11:55:46.091Z,17.46
2023-05-15T11:58:16.850Z,17.69
2023-05-15T12:00:49.540Z,17.63
2023-05-15T12:03:20.827Z,17.56
2023-05-15T12:05:58.426Z,17.49
2023-05-15T12:08:34.454Z,17.39
2023-05-15T12:11:03.812Z,17.32
2023-05-15T12:13:33.517Z,17.29
2023-05-15T12:16:05.033Z,17.38
2023-05-15T12:18:34.435Z,17.46
2023-05-15T12:21:05.704Z,17.57
2023-05-15T12:23:34.470Z,17.65
2023-05-15T12:26:04.036Z,17.72
2023-05-15T12:28:35.735Z,17.71
2023-05-15T12:31:06.492Z,17.66
2023-05-15T12:33:35.483Z,17.66
2023-05-15T12:36:04.340Z,17.68
2023-05-15T12:38:35.165Z,17.74
2023-05-15T12:41:04.238Z,17.71
2023-05-15T12:43:33.482Z,17.65
2023-05-15T12:46:02.387Z,17.70
2023-05-15T12:48:33.561Z,17.81
2023-05-15T12:51:09.522Z,17.95
2023-05-15T12:53:40.192Z,18.07
2023-05-15T12:56:09.824Z,18.18
2023-05-15T12:58:39.591Z,18.31
2023-05-15T13:01:08.481Z,18.62
2023-05-15T13:03:39.178Z,18.70
2023-05-15T13:06:08.580Z,18.92
2023-05-15T13:08:42.783Z,19.11
2023-05-15T13:11:14.638Z,19.23
2023-05-15T13:13:45.442Z,19.15
2023-05-15T13:16:22.719Z,19.06
2023-05-15T13:18:53.606Z,19.13
2023-05-15T13:21:22.495Z,19.06
2023-05-15T13:23:53.051Z,18.95
2023-05-15T13:26:22.015Z,18.71
2023-05-15T13:28:50.712Z,18.62
2023-05-15T13:31:19.529Z,18.97
2023-05-15T13:33:48.347Z,19.21
2023-05-15T13:36:18.832Z,19.14
2023-05-15T13:38:47.783Z,18.94
2023-05-15T13:41:16.505Z,18.63
2023-05-15T13:43:45.296Z,18.47
2023-05-15T13:46:14.043Z,18.41
2023-05-15T13:48:43.071Z,18.31
2023-05-15T13:51:11.732Z,18.21
2023-05-15T13:53:42.252Z,18.26
2023-05-15T13:56:11.218Z,18.24
2023-05-15T13:58:40.769Z,18.19
2023-05-15T14:01:09.371Z,18.17
2023-05-15T14:03:38.271Z,18.08
2023-05-15T14:06:07.577Z,18.10
2023-05-15T14:08:36.488Z,18.27
2023-05-15T14:11:07.023Z,18.17
2023-05-15T14:13:35.986Z,18.23
2023-05-15T14:16:04.757Z,18.45
2023-05-15T14:18:33.592Z,18.46
2023-05-15T14:21:02.670Z,18.52
2023-05-15T14:23:31.465Z,18.42
2023-05-15T14:26:00.231Z,18.32
2023-05-15T14:28:30.599Z,18.18
2023-05-15T14:30:59.399Z,18.03
2023-05-15T14:33:28.050Z,17.98
2023-05-15T14:35:56.927Z,17.96
2023-05-15T14:38:25.689Z,17.87
2023-05-15T14:40:55.075Z,17.81
2023-05-15T14:43:25.259Z,17.73
2023-05-15T14:45:55.451Z,17.67
2023-05-15T14:48:25.749Z,17.63
2023-05-15T14:50:54.448Z,17.62
2023-05-15T14:53:23.097Z,17.56
2023-05-15T14:55:51.972Z,17.55
2023-05-15T14:58:20.763Z,17.49
2023-05-15T15:00:49.630Z,17.55
2023-05-15T15:03:22.152Z,17.62
2023-05-15T15:05:52.154Z,17.76
2023-05-15T15:08:21.183Z,17.94
2023-05-15T15:10:49.863Z,17.97
2023-05-15T15:13:18.605Z,18.02
2023-05-15T15:15:47.900Z,18.06
2023-05-15T15:18:16.721Z,18.18
2023-05-15T15:20:46.920Z,18.29
2023-05-15T15:23:16.011Z,18.38
2023-05-15T15:25:44.739Z,18.50
2023-05-15T15:28:14.569Z,18.49
2023-05-15T15:30:43.299Z,18.45
2023-05-15T15:33:12.110Z,18.33
2023-05-15T15:35:41.067Z,18.17
2023-05-15T15:38:13.586Z,18.15
2023-05-15T15:40:42.406Z,18.05
2023-05-15T15:43:11.274Z,17.97
2023-05-15T15:45:40.046Z,17.92
2023-05-15T15:48:08.829Z,17.92
2023-05-15T15:50:37.912Z,17.94
2023-05-15T15:53:06.681Z,17.99
2023-05-15T15:55:36.955Z,17.98
2023-05-15T15:58:05.753Z,17.92
2023-05-15T16:00:34.546Z,17.88
2023-05-15T16:03:03.467Z,17.81
2023-05-15T16:05:32.258Z,17.79
2023-05-15T16:08:01.131Z,17.74
2023-05-15T16:10:30.111Z,17.70
2023-05-15T16:13:00.458Z,17.65
2023-05-15T16:15:29.318Z,17.64
2023-05-15T16:17:58.155Z,17.60
2023-05-15T16:20:27.543Z,17.53
2023-05-15T16:22:56.261Z,17.48
2023-05-15T16:25:25.296Z,17.38
2023-05-15T16:27:54.723Z,17.36
2023-05-15T16:30:33.874Z,17.31
2023-05-15T16:33:13.842Z,17.29
2023-05-15T16:35:42.569Z,17.30
2023-05-15T16:38:11.319Z,17.31
2023-05-15T16:40:40.378Z,17.27
2023-05-15T16:43:09.250Z,17.29
2023-05-15T16:45:39.501Z,17.28
2023-05-15T16:48:08.713Z,17.24
2023-05-15T16:50:38.139Z,17.19
2023-05-15T16:53:07.464Z,17.16
2023-05-15T16:55:36.188Z,17.14
2023-05-15T16:58:04.917Z,17.06
2023-05-15T17:00:33.627Z,17.00
2023-05-15T17:03:04.506Z,16.99
2023-05-15T17:05:33.603Z,16.94
2023-05-15T17:08:02.555Z,16.89
2023-05-15T17:10:31.440Z,16.82
2023-05-15T17:13:00.042Z,16.80
2023-05-15T17:15:29.009Z,16.72
2023-05-15T17:17:57.738Z,16.64
2023-05-15T17:20:28.825Z,16.58
2023-05-15T17:22:58.281Z,16.50
2023-05-15T17:25:27.059Z,16.42
2023-05-15T17:27:56.157Z,16.33
2023-05-15T17:30:25.058Z,16.24
2023-05-15T17:32:53.713Z,16.21
2023-05-15T17:35:22.968Z,16.10
2023-05-15T17:37:53.126Z,15.98
2023-05-15T17:40:21.929Z,15.94
2023-05-15T17:42:50.653Z,15.85
2023-05-15T17:45:19.580Z,15.78
2023-05-15T17:47:49.481Z,15.75
2023-05-15T17:50:19.361Z,15.64
2023-05-15T17:52:48.090Z,15.45
2023-05-15T17:55:18.346Z,15.34
2023-05-15T17:57:48.431Z,15.29
2023-05-15T18:00:20.055Z,15.23
2023-05-15T18:02:48.850Z,15.14
2023-05-15T18:05:17.677Z,15.03
2023-05-15T18:07:48.333Z,14.96
2023-05-15T18:10:18.552Z,14.88
2023-05-15T18:12:47.454Z,14.75
2023-05-15T18:15:16.369Z,14.69
2023-05-15T18:17:45.281Z,14.57
2023-05-15T18:20:14.666Z,14.51
2023-05-15T18:22:43.620Z,14.40
2023-05-15T18:25:12.395Z,14.30
2023-05-15T18:27:42.758Z,14.25
2023-05-15T18:30:12.323Z,14.20
2023-05-15T18:32:40.807Z,14.15
2023-05-15T18:35:10.363Z,14.05
2023-05-15T18:37:39.129Z,13.96
2023-05-15T18:40:08.962Z,13.92
2023-05-15T18:42:37.822Z,13.89
2023-05-15T18:45:09.505Z,13.83
2023-05-15T18:47:38.257Z,13.79
2023-05-15T18:50:08.314Z,13.76
2023-05-15T18:52:37.100Z,13.68
2023-05-15T18:55:06.943Z,13.62
2023-05-15T18:57:36.853Z,13.58
2023-05-15T19:00:08.179Z,13.53
2023-05-15T19:02:37.837Z,13.46
2023-05-15T19:05:06.691Z,13.40
2023-05-15T19:07:35.670Z,13.39
2023-05-15T19:10:04.589Z,13.39
2023-05-15T19:12:33.897Z,13.38
2023-05-15T19:15:03.819Z,13.38
2023-05-15T19:17:38.024Z,13.42
2023-05-15T19:20:08.719Z,13.39
2023-05-15T19:22:37.618Z,13.34
2023-05-15T19:25:07.474Z,13.33
2023-05-15T19:27:36.572Z,13.23
2023-05-15T19:30:07.183Z,13.08
2023-05-15T19:32:37.680Z,13.02
2023-05-15T19:35:07.380Z,12.97
2023-05-15T19:37:36.604Z,12.87
2023-05-15T19:40:07.358Z,12.74
2023-05-15T19:42:36.148Z,12.74
2023-05-15T19:45:05.168Z,12.64
2023-05-15T19:47:34.291Z,12.58
2023-05-15T19:50:04.809Z,12.60
2023-05-15T19:52:34.040Z,12.63
2023-05-15T19:55:02.837Z,12.60
2023-05-15T19:57:31.582Z,12.59
2023-05-15T20:00:00.300Z,12.59
2023-05-15T20:02:29.312Z,12.57
2023-05-15T20:04:58.115Z,12.46
2023-05-15T20:07:28.320Z,12.42
2023-05-15T20:09:57.971Z,12.37
2023-05-15T20:12:27.138Z,12.32
2023-05-15T20:14:55.853Z,12.32
2023-05-15T20:17:24.687Z,12.29
2023-05-15T20:19:54.066Z,12.28
2023-05-15T20:22:22.838Z,12.22
2023-05-15T20:24:53.025Z,12.21
2023-05-15T20:27:22.280Z,12.15
2023-05-15T20:29:50.949Z,12.18
2023-05-15T20:32:19.725Z,12.24
2023-05-15T20:34:48.469Z,12.25
2023-05-15T20:37:17.556Z,12.22
2023-05-15T20:39:46.236Z,12.16
2023-05-15T20:42:16.452Z,12.17
2023-05-15T20:44:45.388Z,12.17
2023-05-15T20:47:14.580Z,12.19
2023-05-15T20:49:43.344Z,12.14
2023-05-15T20:52:12.137Z,12.17
2023-05-15T20:54:41.005Z,12.17
2023-05-15T20:57:10.934Z,12.17
2023-05-15T20:59:41.186Z,12.19
2023-05-15T21:02:09.944Z,12.09
2023-05-15T21:04:39.733Z,12.02
2023-05-15T21:07:08.598Z,12.00
2023-05-15T21:09:37.328Z,11.98
2023-05-15T21:12:06.716Z,11.97
2023-05-15T21:14:35.383Z,11.91
2023-05-15T21:17:05.968Z,11.92
2023-05-15T21:19:34.812Z,11.93
2023-05-15T21:22:03.546Z,11.84
2023-05-15T21:24:32.367Z,11.84
2023-05-15T21:27:01.060Z,11.85
2023-05-15T21:29:29.849Z,11.83
2023-05-15T21:31:59.586Z,11.85
2023-05-15T21:34:29.844Z,11.80
2023-05-15T21:36:58.590Z,11.86
2023-05-15T21:39:27.350Z,11.83
2023-05-15T21:41:56.049Z,11.72
2023-05-15T21:44:25.047Z,11.70
2023-05-15T21:46:53.808Z,11.72
2023-05-15T21:49:22.688Z,11.74
2023-05-15T21:51:52.802Z,11.74
2023-05-15T21:54:21.597Z,11.71
2023-05-15T21:56:51.897Z,11.68
2023-05-15T21:59:21.563Z,11.75
2023-05-15T22:01:50.510Z,11.77
2023-05-15T22:04:19.250Z,11.74
2023-05-15T22:06:48.149Z,11.66
2023-05-15T22:09:18.319Z,11.64
2023-05-15T22:11:47.177Z,11.66
2023-05-15T22:14:15.995Z,11.64
2023-05-15T22:16:44.888Z,11.65
2023-05-15T22:19:25.060Z,11.61
2023-05-15T22:22:01.539Z,11.45
2023-05-15T22:24:31.818Z,11.36
2023-05-15T22:27:00.573Z,11.30
2023-05-15T22:29:29.347Z,11.28
2023-05-15T22:31:58.281Z,11.25
2023-05-15T22:34:29.391Z,11.28
2023-05-15T22:36:58.296Z,11.25
2023-05-15T22:39:27.085Z,11.21
2023-05-15T22:41:58.461Z,11.22
2023-05-15T22:44:28.730Z,11.20
2023-05-15T22:46:57.645Z,11.16
2023-05-15T22:49:26.801Z,11.17
2023-05-15T22:51:57.080Z,11.11
2023-05-15T22:54:26.033Z,11.06
2023-05-15T22:56:56.699Z,11.03
2023-05-15T22:59:26.279Z,10.96
2023-05-15T23:01:55.073Z,10.98
2023-05-15T23:04:24.806Z,10.85
2023-05-15T23:06:53.379Z,10.81
2023-05-15T23:09:22.153Z,10.79
2023-05-15T23:11:51.056Z,10.73
2023-05-15T23:14:22.047Z,10.68
2023-05-15T23:16:51.120Z,10.63
2023-05-15T23:19:20.022Z,10.65
2023-05-15T23:21:49.304Z,10.67
2023-05-15T23:24:18.145Z,10.68
2023-05-15T23:26:47.317Z,10.67
2023-05-15T23:29:16.081Z,10.64
2023-05-15T23:31:46.602Z,10.69
2023-05-15T23:34:15.351Z,10.76
2023-05-15T23:36:44.219Z,10.81
2023-05-15T23:39:13.966Z,10.83
2023-05-15T23:41:42.847Z,10.83
2023-05-15T23:44:11.744Z,10.81
2023-05-15T23:46:40.660Z,10.75
2023-05-15T23:49:10.776Z,10.76
2023-05-15T23:51:39.731Z,10.80
2023-05-15T23:54:08.481Z,10.82
2023-05-15T23:56:37.275Z,10.84
2023-05-15T23:59:06.205Z,10.83
